createdAt,value
2023-10-19T00:01:29.796Z,7.95
2023-10-19T00:04:34.570Z,7.95
2023-10-19T00:07:42.170Z,8.63
2023-10-19T00:10:49.636Z,11.25
2023-10-19T00:13:52.802Z,10.98
2023-10-19T00:17:01.600Z,8.93
2023-10-19T00:20:23.225Z,10.90
2023-10-19T00:23:30.317Z,8.40
2023-10-19T00:26:33.340Z,10.77
2023-10-19T00:29:41.810Z,9.45
2023-10-19T00:32:44.696Z,9.52
2023-10-19T00:35:48.857Z,12.38
2023-10-19T00:38:54.441Z,11.38
2023-10-19T00:42:00.077Z,10.10
2023-10-19T00:45:06.612Z,12.85
2023-10-19T00:48:12.773Z,11.38
2023-10-19T00:51:28.749Z,13.05
2023-10-19T00:54:48.321Z,9.20
2023-10-19T00:57:51.546Z,13.45
2023-10-19T01:00:56.785Z,8.80
2023-10-19T01:04:07.175Z,10.68
2023-10-19T01:07:29.041Z,13.10
2023-10-19T01:10:33.603Z,9.10
2023-10-19T01:13:36.428Z,7.55
2023-10-19T01:16:40.508Z,8.65
2023-10-19T01:19:59.817Z,8.70
2023-10-19T01:23:10.163Z,8.27
2023-10-19T01:26:21.076Z,10.45
2023-10-19T01:29:37.855Z,8.65
2023-10-19T01:32:53.533Z,9.13
2023-10-19T01:36:15.086Z,8.00
2023-10-19T01:39:21.408Z,9.18
2023-10-19T01:42:27.368Z,9.65
2023-10-19T01:45:31.217Z,10.57
2023-10-19T01:48:37.504Z,11.13
2023-10-19T01:51:43.568Z,9.73
2023-10-19T01:54:46.925Z,8.60
2023-10-19T01:57:49.678Z,7.72
2023-10-19T02:01:04.491Z,11.88
2023-10-19T02:04:10.913Z,10.13
2023-10-19T02:07:19.477Z,14.07
2023-10-19T02:10:23.661Z,9.55
2023-10-19T02:13:26.483Z,8.90
2023-10-19T02:16:33.543Z,10.55
2023-10-19T02:22:41.185Z,10.55
2023-10-19T02:25:44.384Z,7.82
2023-10-19T02:28:48.653Z,10.13
2023-10-19T02:31:52.069Z,11.65
2023-10-19T02:35:10.417Z,11.13
2023-10-19T02:38:13.226Z,13.75
2023-10-19T02:41:22.909Z,13.63
2023-10-19T02:44:33.611Z,13.98
2023-10-19T02:47:36.585Z,14.13
2023-10-19T02:50:43.183Z,12.05
2023-10-19T02:53:55.813Z,14.40
2023-10-19T02:57:08.682Z,13.52
2023-10-19T03:00:15.834Z,16.65
2023-10-19T03:03:18.878Z,12.77
2023-10-19T03:06:25.074Z,13.90
2023-10-19T03:09:27.882Z,16.92
2023-10-19T03:12:44.714Z,18.13
2023-10-19T03:15:47.503Z,16.17
2023-10-19T03:18:58.646Z,13.80
2023-10-19T03:22:07.522Z,17.50
2023-10-19T03:25:33.305Z,15.82
2023-10-19T03:28:36.979Z,19.73
2023-10-19T03:31:47.535Z,16.20
2023-10-19T03:34:55.249Z,16.95
2023-10-19T03:38:02.165Z,16.52
2023-10-19T03:41:10.064Z,14.65
2023-10-19T03:44:25.465Z,18.02
2023-10-19T03:47:41.239Z,16.08
2023-10-19T03:50:46.438Z,16.20
2023-10-19T03:53:56.353Z,19.25
2023-10-19T03:57:03.086Z,14.10
2023-10-19T04:00:12.846Z,18.00
2023-10-19T04:03:16.562Z,21.30
2023-10-19T04:06:21.984Z,20.00
2023-10-19T04:09:30.922Z,15.95
2023-10-19T04:12:36.920Z,17.67
2023-10-19T04:15:39.862Z,20.10
2023-10-19T04:18:47.680Z,19.73
2023-10-19T04:21:59.820Z,18.40
2023-10-19T04:25:04.380Z,19.00
2023-10-19T04:28:08.004Z,16.23
2023-10-19T04:31:15.293Z,19.13
2023-10-19T04:34:22.613Z,21.00
2023-10-19T04:37:25.853Z,18.15
2023-10-19T04:40:28.978Z,23.00
2023-10-19T04:43:42.573Z,21.05
2023-10-19T04:46:48.327Z,18.52
2023-10-19T04:49:53.317Z,19.55
2023-10-19T04:52:56.137Z,19.38
2023-10-19T04:56:02.722Z,19.17
2023-10-19T04:59:06.345Z,18.85
2023-10-19T05:02:09.159Z,20.00
2023-10-19T05:05:12.502Z,19.67
2023-10-19T05:08:17.718Z,16.90
2023-10-19T05:11:20.652Z,17.80
2023-10-19T05:14:26.748Z,16.08
2023-10-19T05:17:29.701Z,14.82
2023-10-19T05:20:34.959Z,12.50
2023-10-19T05:23:38.022Z,14.70
2023-10-19T05:26:41.102Z,15.50
2023-10-19T05:29:43.943Z,15.73
2023-10-19T05:32:51.256Z,15.23
2023-10-19T05:35:54.137Z,14.55
2023-10-19T05:38:59.384Z,13.88
2023-10-19T05:42:02.866Z,15.52
2023-10-19T05:45:09.632Z,13.63
2023-10-19T05:48:14.796Z,14.95
2023-10-19T05:51:20.349Z,15.02
2023-10-19T05:54:25.686Z,14.77
2023-10-19T05:57:29.749Z,12.48
2023-10-19T06:00:33.166Z,13.27
2023-10-19T06:03:36.166Z,12.48
2023-10-19T06:06:39.637Z,12.75
2023-10-19T06:09:42.492Z,14.30
2023-10-19T06:12:52.329Z,15.73
2023-10-19T06:15:55.655Z,14.00
2023-10-19T06:18:58.535Z,13.27
2023-10-19T06:22:01.532Z,13.88
2023-10-19T06:25:07.782Z,13.68
2023-10-19T06:28:13.742Z,14.83
2023-10-19T06:31:22.107Z,15.52
2023-10-19T06:34:26.871Z,16.52
2023-10-19T06:37:30.717Z,14.80
2023-10-19T06:40:40.980Z,16.27
2023-10-19T06:43:48.922Z,14.40
2023-10-19T06:46:56.082Z,13.20
2023-10-19T06:50:00.657Z,14.90
2023-10-19T06:53:07.159Z,12.45
2023-10-19T06:56:20.457Z,14.13
2023-10-19T06:59:26.965Z,13.00
2023-10-19T07:02:34.322Z,14.35
2023-10-19T07:05:41.682Z,15.95
2023-10-19T07:08:56.889Z,17.55
2023-10-19T07:12:04.867Z,16.15
2023-10-19T07:15:28.754Z,15.65
2023-10-19T07:18:34.926Z,13.57
2023-10-19T07:21:43.683Z,14.98
2023-10-19T07:24:50.218Z,16.23
2023-10-19T07:27:54.215Z,12.30
2023-10-19T07:31:01.387Z,14.00
2023-10-19T07:34:07.243Z,13.93
2023-10-19T07:37:16.864Z,15.32
2023-10-19T07:40:20.077Z,13.52
2023-10-19T07:43:29.898Z,13.95
2023-10-19T07:46:33.285Z,12.75
2023-10-19T07:49:42.900Z,11.35
2023-10-19T07:52:50.916Z,12.93
2023-10-19T07:55:54.396Z,14.32
2023-10-19T07:58:58.540Z,14.40
2023-10-19T08:02:03.780Z,13.30
2023-10-19T08:05:08.948Z,12.52
2023-10-19T08:08:15.597Z,12.05
2023-10-19T08:11:19.198Z,11.38
2023-10-19T08:14:27.975Z,13.10
2023-10-19T08:17:31.249Z,12.60
2023-10-19T08:20:39.201Z,15.95
2023-10-19T08:23:46.738Z,11.02
2023-10-19T08:26:49.480Z,12.90
2023-10-19T08:29:52.309Z,14.10
2023-10-19T08:32:55.643Z,13.32
2023-10-19T08:36:04.534Z,14.52
2023-10-19T08:39:09.056Z,14.38
2023-10-19T08:42:11.923Z,13.27
2023-10-19T08:45:15.383Z,15.82
2023-10-19T08:48:18.807Z,17.05
2023-10-19T08:51:21.525Z,18.17
2023-10-19T08:54:30.510Z,14.15
2023-10-19T08:57:33.517Z,15.98
2023-10-19T09:00:58.469Z,18.52
2023-10-19T09:07:57.824Z,15.45
2023-10-19T09:11:08.569Z,13.30
2023-10-19T09:14:14.177Z,17.27
2023-10-19T09:17:19.269Z,15.95
2023-10-19T09:20:31.425Z,15.10
2023-10-19T09:23:35.033Z,15.48
2023-10-19T09:26:38.520Z,15.80
2023-10-19T09:29:42.525Z,14.43
2023-10-19T09:32:50.771Z,16.55
2023-10-19T09:35:58.363Z,17.10
2023-10-19T09:39:04.524Z,14.95
2023-10-19T09:42:14.428Z,14.13
2023-10-19T09:45:21.254Z,16.98
2023-10-19T09:48:25.686Z,14.95
2023-10-19T09:51:36.237Z,15.18
2023-10-19T09:55:02.698Z,14.00
2023-10-19T09:58:17.716Z,15.98
2023-10-19T10:01:23.184Z,16.00
2023-10-19T10:04:33.283Z,13.60
2023-10-19T10:10:44.839Z,15.13
2023-10-19T10:13:52.636Z,15.07
2023-10-19T10:17:06.601Z,15.57
2023-10-19T10:20:18.743Z,11.70
2023-10-19T10:23:33.911Z,12.02
2023-10-19T10:26:59.603Z,12.52
2023-10-19T10:30:09.542Z,13.88
2023-10-19T10:33:43.088Z,14.65
2023-10-19T10:37:06.962Z,11.88
2023-10-19T10:40:10.618Z,13.52
2023-10-19T10:43:15.482Z,12.15
2023-10-19T10:46:18.406Z,8.65
2023-10-19T10:49:21.281Z,12.38
2023-10-19T10:52:36.184Z,11.57
2023-10-19T10:55:39.811Z,12.30
2023-10-19T10:58:46.433Z,11.13
2023-10-19T11:01:49.451Z,8.77
2023-10-19T11:04:52.189Z,11.88
2023-10-19T11:08:23.446Z,11.52
2023-10-19T11:11:27.832Z,10.93
2023-10-19T11:14:30.995Z,13.23
2023-10-19T11:17:34.216Z,11.30
2023-10-19T11:20:37.386Z,10.30
2023-10-19T11:23:49.570Z,12.10
2023-10-19T11:26:52.552Z,11.32
2023-10-19T11:30:08.786Z,11.25
2023-10-19T11:33:13.178Z,9.70
2023-10-19T11:36:20.357Z,15.55
2023-10-19T11:39:25.296Z,12.50
2023-10-19T11:42:28.297Z,15.20
2023-10-19T11:45:31.196Z,14.13
2023-10-19T11:48:35.420Z,13.23
2023-10-19T11:51:38.682Z,12.63
2023-10-19T11:54:41.356Z,14.70
2023-10-19T11:57:46.218Z,15.20
2023-10-19T12:00:49.181Z,14.80
2023-10-19T12:03:53.100Z,13.15
2023-10-19T12:06:56.813Z,17.48
2023-10-19T12:09:59.885Z,16.95
2023-10-19T12:13:09.087Z,19.20
2023-10-19T12:16:17.713Z,16.20
2023-10-19T12:19:21.181Z,13.30
2023-10-19T12:22:27.074Z,15.98
2023-10-19T12:25:49.941Z,16.98
2023-10-19T12:28:56.482Z,16.50
2023-10-19T12:31:59.352Z,15.05
2023-10-19T12:35:02.212Z,13.20
2023-10-19T12:38:07.672Z,14.43
2023-10-19T12:41:10.804Z,12.30
2023-10-19T12:44:13.897Z,14.27
2023-10-19T12:47:19.070Z,12.93
2023-10-19T12:50:24.201Z,12.23
2023-10-19T12:53:27.928Z,10.98
2023-10-19T12:56:30.813Z,12.30
2023-10-19T12:59:43.439Z,12.75
2023-10-19T13:02:46.242Z,11.45
2023-10-19T13:05:52.198Z,14.15
2023-10-19T13:08:54.994Z,12.80
2023-10-19T13:12:01.709Z,13.95
2023-10-19T13:15:15.034Z,13.90
2023-10-19T13:18:21.389Z,14.02
2023-10-19T13:21:29.516Z,11.97
2023-10-19T13:24:33.544Z,16.48
2023-10-19T13:27:36.878Z,14.73
2023-10-19T13:30:50.184Z,14.25
2023-10-19T13:33:56.251Z,14.68
2023-10-19T13:37:01.821Z,14.60
2023-10-19T13:40:07.916Z,14.27
2023-10-19T13:43:15.357Z,16.87
2023-10-19T13:46:21.780Z,17.02
2023-10-19T13:49:24.663Z,19.15
2023-10-19T13:52:27.758Z,15.88
2023-10-19T13:55:31.507Z,15.98
2023-10-19T13:58:34.704Z,19.17
2023-10-19T14:01:37.654Z,16.90
2023-10-19T14:04:40.566Z,20.52
2023-10-19T14:07:48.191Z,21.00
2023-10-19T14:10:53.218Z,17.45
2023-10-19T14:13:56.625Z,17.75
2023-10-19T14:17:00.009Z,18.88
2023-10-19T14:20:03.018Z,17.40
2023-10-19T14:23:06.377Z,20.50
2023-10-19T14:26:11.727Z,18.83
2023-10-19T14:29:15.053Z,18.83
2023-10-19T14:32:18.276Z,19.65
2023-10-19T14:35:24.423Z,17.35
2023-10-19T14:38:28.942Z,26.33
2023-10-19T14:41:34.544Z,28.58
2023-10-19T14:44:37.717Z,26.00
2023-10-19T14:47:45.071Z,29.08
2023-10-19T14:50:48.983Z,24.52
2023-10-19T14:53:51.872Z,33.33
2023-10-19T14:56:54.818Z,39.38
2023-10-19T15:00:16.618Z,25.33
2023-10-19T15:03:20.840Z,29.23
2023-10-19T15:06:33.106Z,29.08
2023-10-19T15:09:38.904Z,25.60
2023-10-19T15:12:45.486Z,21.42
2023-10-19T15:15:48.470Z,27.52
2023-10-19T15:18:54.286Z,23.75
2023-10-19T15:21:56.996Z,25.65
2023-10-19T15:25:05.467Z,26.48
2023-10-19T15:28:11.348Z,23.25
2023-10-19T15:31:14.796Z,21.58
2023-10-19T15:34:21.496Z,23.35
2023-10-19T15:37:24.437Z,22.33
2023-10-19T15:40:30.507Z,27.17
2023-10-19T15:43:33.386Z,30.38
2023-10-19T15:46:40.987Z,35.05
2023-10-19T15:50:00.229Z,28.88
2023-10-19T15:53:03.095Z,29.02
2023-10-19T15:56:06.042Z,26.95
2023-10-19T15:59:09.378Z,32.83
2023-10-19T16:02:12.969Z,57.40
2023-10-19T16:05:17.225Z,53.47
2023-10-19T16:08:20.115Z,63.08
2023-10-19T16:11:24.818Z,59.75
2023-10-19T16:14:28.192Z,44.25
2023-10-19T16:17:31.324Z,42.78
2023-10-19T16:20:36.549Z,60.42
2023-10-19T16:23:40.481Z,56.30
2023-10-19T16:26:43.437Z,65.57
2023-10-19T16:29:46.283Z,66.15
2023-10-19T16:32:49.303Z,65.85
2023-10-19T16:36:00.912Z,54.47
2023-10-19T16:39:03.978Z,39.15
2023-10-19T16:42:07.350Z,38.33
2023-10-19T16:45:13.231Z,52.95
2023-10-19T16:48:16.186Z,69.27
2023-10-19T16:51:19.365Z,52.80
2023-10-19T16:54:22.455Z,255.02
2023-10-19T16:57:29.011Z,83.03
2023-10-19T17:00:33.417Z,90.75
2023-10-19T17:03:37.576Z,79.80
2023-10-19T17:06:44.142Z,61.08
2023-10-19T17:09:49.179Z,56.35
2023-10-19T17:12:52.056Z,54.67
2023-10-19T17:15:56.049Z,49.33
2023-10-19T17:18:59.694Z,45.28
2023-10-19T17:22:03.751Z,56.30
2023-10-19T17:25:09.202Z,50.08
2023-10-19T17:28:12.736Z,113.22
2023-10-19T17:31:15.974Z,95.15
2023-10-19T17:34:21.750Z,72.63
2023-10-19T17:37:25.621Z,125.25
2023-10-19T17:40:28.929Z,83.28
2023-10-19T17:43:32.013Z,52.03
2023-10-19T17:46:36.153Z,42.78
2023-10-19T17:49:39.045Z,37.53
2023-10-19T17:52:45.473Z,86.47
2023-10-19T17:55:48.504Z,86.32
2023-10-19T17:58:53.789Z,69.65
2023-10-19T18:01:56.937Z,49.78
2023-10-19T18:05:02.303Z,56.70
2023-10-19T18:08:05.750Z,57.83
2023-10-19T18:11:15.141Z,58.03
2023-10-19T18:14:19.382Z,44.92
2023-10-19T18:17:24.907Z,62.90
2023-10-19T18:20:32.564Z,57.40
2023-10-19T18:23:36.566Z,52.92
2023-10-19T18:26:47.370Z,53.08
2023-10-19T18:29:50.811Z,56.47
2023-10-19T18:32:53.988Z,105.40
2023-10-19T18:36:06.391Z,98.80
2023-10-19T18:39:10.524Z,68.88
2023-10-19T18:42:13.994Z,64.45
2023-10-19T18:45:16.860Z,49.45
2023-10-19T18:48:19.746Z,51.22
2023-10-19T18:51:22.730Z,53.85
2023-10-19T18:54:26.525Z,55.20
2023-10-19T18:57:33.937Z,45.25
2023-10-19T19:00:38.662Z,35.03
2023-10-19T19:03:49.011Z,41.30
2023-10-19T19:06:53.127Z,43.30
2023-10-19T19:09:57.858Z,31.92
2023-10-19T19:13:01.319Z,110.15
2023-10-19T19:16:04.866Z,72.75
2023-10-19T19:19:10.224Z,98.55
2023-10-19T19:22:13.349Z,46.90
2023-10-19T19:25:18.609Z,33.10
2023-10-19T19:28:21.631Z,30.27
2023-10-19T19:31:27.580Z,27.67
2023-10-19T19:34:30.706Z,24.08
2023-10-19T19:37:39.355Z,23.88
2023-10-19T19:40:42.621Z,28.83
2023-10-19T19:43:45.901Z,27.45
2023-10-19T19:46:50.454Z,25.90
2023-10-19T19:49:53.246Z,35.63
2023-10-19T19:52:56.381Z,45.03
2023-10-19T19:56:01.702Z,38.40
2023-10-19T19:59:04.830Z,29.63
2023-10-19T20:02:10.180Z,22.17
2023-10-19T20:05:18.839Z,24.30
2023-10-19T20:08:24.229Z,32.53
2023-10-19T20:11:27.149Z,60.72
2023-10-19T20:14:30.012Z,60.58
2023-10-19T20:17:34.417Z,33.20
2023-10-19T20:20:37.363Z,21.20
2023-10-19T20:23:40.272Z,17.30
2023-10-19T20:26:44.046Z,18.63
2023-10-19T20:29:49.366Z,16.15
2023-10-19T20:32:57.014Z,14.13
2023-10-19T20:36:00.020Z,21.05
2023-10-19T20:39:04.174Z,17.73
2023-10-19T20:42:07.021Z,17.85
2023-10-19T20:45:10.859Z,18.85
2023-10-19T20:48:13.595Z,21.30
2023-10-19T20:51:20.435Z,25.38
2023-10-19T20:54:23.458Z,22.38
2023-10-19T20:57:26.451Z,15.57
2023-10-19T21:00:29.194Z,17.52
2023-10-19T21:03:32.099Z,15.15
2023-10-19T21:06:37.981Z,19.88
2023-10-19T21:09:40.659Z,24.55
2023-10-19T21:12:47.595Z,29.38
2023-10-19T21:15:51.189Z,24.35
2023-10-19T21:18:54.143Z,17.73
2023-10-19T21:21:57.157Z,18.13
2023-10-19T21:25:01.720Z,33.30
2023-10-19T21:28:05.569Z,25.30
2023-10-19T21:31:11.984Z,21.33
2023-10-19T21:34:15.060Z,17.48
2023-10-19T21:37:30.662Z,16.92
2023-10-19T21:40:33.723Z,15.30
2023-10-19T21:43:40.645Z,12.23
2023-10-19T21:46:43.328Z,15.68
2023-10-19T21:49:50.770Z,15.93
2023-10-19T21:52:53.723Z,18.20
2023-10-19T21:56:00.136Z,26.10
2023-10-19T21:59:03.039Z,20.88
2023-10-19T22:02:06.256Z,24.05
2023-10-19T22:05:22.066Z,26.75
2023-10-19T22:08:30.509Z,28.13
2023-10-19T22:11:35.587Z,29.95
2023-10-19T22:14:38.830Z,29.48
2023-10-19T22:17:41.569Z,27.85
2023-10-19T22:20:47.546Z,22.80
2023-10-19T22:23:50.612Z,23.50
2023-10-19T22:26:53.439Z,19.60
2023-10-19T22:29:56.839Z,20.08
2023-10-19T22:33:03.864Z,24.80
2023-10-19T22:39:10.457Z,18.73
2023-10-19T22:42:13.977Z,19.85
2023-10-19T22:45:18.181Z,19.63
2023-10-19T22:48:20.905Z,22.00
2023-10-19T22:51:23.823Z,22.02
2023-10-19T22:54:28.936Z,23.52
2023-10-19T22:57:32.331Z,18.17
2023-10-19T23:00:35.340Z,17.60
2023-10-19T23:03:41.591Z,16.13
2023-10-19T23:06:44.282Z,21.33
2023-10-19T23:09:47.314Z,21.05
2023-10-19T23:12:52.685Z,20.23
2023-10-19T23:15:56.951Z,21.02
2023-10-19T23:19:01.370Z,15.13
2023-10-19T23:22:04.270Z,18.08
2023-10-19T23:25:10.598Z,13.38
2023-10-19T23:28:15.769Z,12.23
2023-10-19T23:31:24.951Z,17.50
2023-10-19T23:34:27.799Z,15.85
2023-10-19T23:37:33.469Z,12.77
2023-10-19T23:40:36.528Z,16.90
2023-10-19T23:43:39.420Z,19.65
2023-10-19T23:46:42.247Z,18.63
2023-10-19T23:49:46.370Z,18.65
2023-10-19T23:52:49.198Z,19.33
2023-10-19T23:55:53.047Z,15.82
2023-10-19T23:58:58.624Z,14.73
